This is the latest recevied weather packets stored in our database for station/object DW2488. If no packets are shown the sender has not sent any weather packets the latest 10 day(s).
| Time | Temp. | Humidity | Pressure | Rain* | Wind** | Luminosity | Snow |
|---|---|---|---|---|---|---|---|
| 1777709650 | 20° C | 75% | 1023.3 hPa | 0 mm | - | 0 W/m² | - |
| 1777708757 | 20.56° C | 73% | 1022.9 hPa | 0 mm | - | 0 W/m² | - |
| 1777707851 | 20.56° C | 73% | 1022.7 hPa | 0 mm | - | 0 W/m² | - |
| 1777706956 | 20.56° C | 72% | 1022.8 hPa | 0 mm | - | 0 W/m² | - |
| 1777706057 | 21.11° C | 71% | 1022.5 hPa | 0 mm | - | 0 W/m² | - |
| 1777705149 | 21.67° C | 69% | 1022.4 hPa | 0 mm | - | 14 W/m² | - |
| 1777704252 | 21.67° C | 69% | 1022.5 hPa | 0 mm | - | 32 W/m² | - |
| 1777703359 | 22.22° C | 69% | 1022.5 hPa | 0 mm | - | 47 W/m² | - |
| 1777702452 | 22.22° C | 69% | 1022.5 hPa | 0 mm | - | 42 W/m² | - |
| 1777701556 | 22.22° C | 68% | 1022.4 hPa | 0 mm | - | 72 W/m² | - |
| 1777700651 | 22.78° C | 69% | 1022.5 hPa | 0 mm | - | 65 W/m² | - |
| 1777699756 | 22.78° C | 69% | 1022.5 hPa | 0 mm | - | 109 W/m² | - |
| 1777698852 | 22.78° C | 69% | 1022.5 hPa | 0 mm | - | 107 W/m² | - |
| 1777697957 | 22.78° C | 71% | 1022.9 hPa | 0 mm | - | 113 W/m² | - |
| 1777697069 | 22.78° C | 73% | 1022.9 hPa | 0.51 mm | - | 318 W/m² | - |
| 1777696152 | 22.22° C | 74% | 1022.8 hPa | 0.51 mm | - | 230 W/m² | - |
| 1777695257 | 22.22° C | 75% | 1023.2 hPa | 0.51 mm | - | 290 W/m² | - |
| 1777694357 | 22.78° C | 72% | 1023.3 hPa | 0.51 mm | - | 102 W/m² | - |
| 1777693456 | 23.33° C | 69% | 1023.3 hPa | 0 mm | - | 88 W/m² | - |
| 1777692557 | 23.33° C | 70% | 1023.2 hPa | 0 mm | - | 274 W/m² | - |
| 1777691618 | 23.89° C | 68% | 1023.6 hPa | 0 mm | - | 169 W/m² | - |
| 1777690706 | 25° C | 61% | 1023.7 hPa | 0 mm | - | 69 W/m² | - |
| 1777689805 | 25.56° C | 61% | 1023.8 hPa | 0 mm | - | 262 W/m² | - |
| 1777688901 | 25° C | 61% | 1024.1 hPa | 0 mm | - | 594 W/m² | - |
| 1777688001 | 25° C | 60% | 1024.5 hPa | 0 mm | - | 364 W/m² | - |
* Rain latest hour (hover to see other rain measurements)
** Current wind speed in m/s (hover to see current wind gust speed)